sensor_id;sensor_type;location;lat;lon;timestamp;temperature;humidity
9837;DHT22;4957;51.412;6.724;2022-10-30T00:00:19;17.50;93.60
9837;DHT22;4957;51.412;6.724;2022-10-30T00:02:46;17.50;93.60
9837;DHT22;4957;51.412;6.724;2022-10-30T00:05:12;17.50;93.60
9837;DHT22;4957;51.412;6.724;2022-10-30T00:07:38;17.50;93.70
9837;DHT22;4957;51.412;6.724;2022-10-30T00:10:04;17.50;93.70
9837;DHT22;4957;51.412;6.724;2022-10-30T00:12:30;17.40;93.60
9837;DHT22;4957;51.412;6.724;2022-10-30T00:14:55;17.40;93.70
9837;DHT22;4957;51.412;6.724;2022-10-30T00:17:21;17.50;93.80
9837;DHT22;4957;51.412;6.724;2022-10-30T00:19:46;17.40;93.80
9837;DHT22;4957;51.412;6.724;2022-10-30T00:22:12;17.40;93.80
9837;DHT22;4957;51.412;6.724;2022-10-30T00:24:38;17.40;93.90
9837;DHT22;4957;51.412;6.724;2022-10-30T00:27:03;17.40;93.90
9837;DHT22;4957;51.412;6.724;2022-10-30T00:29:29;17.40;93.90
9837;DHT22;4957;51.412;6.724;2022-10-30T00:31:54;17.40;93.90
9837;DHT22;4957;51.412;6.724;2022-10-30T00:34:20;17.40;94.00
9837;DHT22;4957;51.412;6.724;2022-10-30T00:36:46;17.40;94.10
9837;DHT22;4957;51.412;6.724;2022-10-30T00:39:11;17.30;94.00
9837;DHT22;4957;51.412;6.724;2022-10-30T00:41:37;17.30;94.00
9837;DHT22;4957;51.412;6.724;2022-10-30T00:47:09;17.30;94.00
9837;DHT22;4957;51.412;6.724;2022-10-30T00:49:46;17.30;94.10
9837;DHT22;4957;51.412;6.724;2022-10-30T00:52:14;17.30;94.20
9837;DHT22;4957;51.412;6.724;2022-10-30T00:54:39;17.30;94.20
9837;DHT22;4957;51.412;6.724;2022-10-30T00:57:06;17.30;94.30
9837;DHT22;4957;51.412;6.724;2022-10-30T00:59:33;17.30;94.30
9837;DHT22;4957;51.412;6.724;2022-10-30T01:02:01;17.30;94.40
9837;DHT22;4957;51.412;6.724;2022-10-30T01:04:29;17.30;94.40
9837;DHT22;4957;51.412;6.724;2022-10-30T01:06:56;17.20;94.40
9837;DHT22;4957;51.412;6.724;2022-10-30T01:09:22;17.20;94.40
9837;DHT22;4957;51.412;6.724;2022-10-30T01:11:48;17.20;94.40
9837;DHT22;4957;51.412;6.724;2022-10-30T01:14:16;17.20;94.50
9837;DHT22;4957;51.412;6.724;2022-10-30T01:17:01;17.20;94.50
9837;DHT22;4957;51.412;6.724;2022-10-30T01:31:22;17.10;94.70
9837;DHT22;4957;51.412;6.724;2022-10-30T01:33:58;17.10;94.80
9837;DHT22;4957;51.412;6.724;2022-10-30T01:38:57;17.10;94.90
9837;DHT22;4957;51.412;6.724;2022-10-30T01:41:24;17.00;94.90
9837;DHT22;4957;51.412;6.724;2022-10-30T01:43:54;17.00;94.90
9837;DHT22;4957;51.412;6.724;2022-10-30T01:46:41;17.00;95.00
9837;DHT22;4957;51.412;6.724;2022-10-30T01:52:33;17.00;95.10
9837;DHT22;4957;51.412;6.724;2022-10-30T01:57:50;16.90;95.10
9837;DHT22;4957;51.412;6.724;2022-10-30T02:00:19;16.90;95.10
9837;DHT22;4957;51.412;6.724;2022-10-30T02:02:45;16.90;95.10
9837;DHT22;4957;51.412;6.724;2022-10-30T02:05:35;16.80;95.10
9837;DHT22;4957;51.412;6.724;2022-10-30T02:08:03;16.80;95.10
9837;DHT22;4957;51.412;6.724;2022-10-30T02:10:29;16.80;95.30
9837;DHT22;4957;51.412;6.724;2022-10-30T02:12:56;16.70;95.30
9837;DHT22;4957;51.412;6.724;2022-10-30T02:15:21;16.70;95.40
9837;DHT22;4957;51.412;6.724;2022-10-30T02:17:47;16.70;95.50
9837;DHT22;4957;51.412;6.724;2022-10-30T02:20:19;16.70;95.40
9837;DHT22;4957;51.412;6.724;2022-10-30T02:22:45;16.60;95.40
9837;DHT22;4957;51.412;6.724;2022-10-30T02:25:12;16.60;95.40
9837;DHT22;4957;51.412;6.724;2022-10-30T02:27:38;16.60;95.50
9837;DHT22;4957;51.412;6.724;2022-10-30T02:30:04;16.60;95.60
9837;DHT22;4957;51.412;6.724;2022-10-30T02:32:30;16.60;95.70
9837;DHT22;4957;51.412;6.724;2022-10-30T02:34:56;16.50;95.70
9837;DHT22;4957;51.412;6.724;2022-10-30T02:37:22;16.50;95.70
9837;DHT22;4957;51.412;6.724;2022-10-30T02:39:49;16.50;95.80
9837;DHT22;4957;51.412;6.724;2022-10-30T02:42:14;16.50;95.90
9837;DHT22;4957;51.412;6.724;2022-10-30T02:44:40;16.50;95.90
9837;DHT22;4957;51.412;6.724;2022-10-30T02:47:06;16.40;95.90
9837;DHT22;4957;51.412;6.724;2022-10-30T02:49:32;16.40;95.90
9837;DHT22;4957;51.412;6.724;2022-10-30T02:51:57;16.40;96.00
9837;DHT22;4957;51.412;6.724;2022-10-30T02:54:23;16.40;96.00
9837;DHT22;4957;51.412;6.724;2022-10-30T02:56:48;16.30;96.00
9837;DHT22;4957;51.412;6.724;2022-10-30T02:59:14;16.30;96.10
9837;DHT22;4957;51.412;6.724;2022-10-30T03:01:40;16.30;96.10
9837;DHT22;4957;51.412;6.724;2022-10-30T03:04:06;16.30;96.10
9837;DHT22;4957;51.412;6.724;2022-10-30T03:06:31;16.20;96.20
9837;DHT22;4957;51.412;6.724;2022-10-30T03:08:57;16.20;96.20
9837;DHT22;4957;51.412;6.724;2022-10-30T03:11:23;16.20;96.30
9837;DHT22;4957;51.412;6.724;2022-10-30T03:13:48;16.20;96.30
9837;DHT22;4957;51.412;6.724;2022-10-30T03:16:23;16.20;96.60
9837;DHT22;4957;51.412;6.724;2022-10-30T03:18:50;16.10;96.30
9837;DHT22;4957;51.412;6.724;2022-10-30T03:21:18;16.10;96.40
9837;DHT22;4957;51.412;6.724;2022-10-30T03:23:44;16.10;96.50
9837;DHT22;4957;51.412;6.724;2022-10-30T03:26:10;16.00;96.50
9837;DHT22;4957;51.412;6.724;2022-10-30T03:28:36;16.00;96.60
9837;DHT22;4957;51.412;6.724;2022-10-30T03:31:12;16.00;96.70
9837;DHT22;4957;51.412;6.724;2022-10-30T03:33:39;16.00;96.70
9837;DHT22;4957;51.412;6.724;2022-10-30T03:36:06;16.00;96.80
9837;DHT22;4957;51.412;6.724;2022-10-30T03:38:32;15.90;96.70
9837;DHT22;4957;51.412;6.724;2022-10-30T03:40:58;15.90;96.70
9837;DHT22;4957;51.412;6.724;2022-10-30T03:43:24;15.90;96.70
9837;DHT22;4957;51.412;6.724;2022-10-30T03:45:52;15.90;96.70
9837;DHT22;4957;51.412;6.724;2022-10-30T03:48:19;15.90;96.70
9837;DHT22;4957;51.412;6.724;2022-10-30T03:50:46;15.80;96.70
9837;DHT22;4957;51.412;6.724;2022-10-30T03:53:12;15.80;96.80
9837;DHT22;4957;51.412;6.724;2022-10-30T03:55:38;15.80;96.80
9837;DHT22;4957;51.412;6.724;2022-10-30T03:58:04;15.80;96.90
9837;DHT22;4957;51.412;6.724;2022-10-30T04:00:31;15.80;96.80
9837;DHT22;4957;51.412;6.724;2022-10-30T04:02:57;15.70;96.80
9837;DHT22;4957;51.412;6.724;2022-10-30T04:05:24;15.70;96.80
9837;DHT22;4957;51.412;6.724;2022-10-30T04:07:58;15.70;96.80
9837;DHT22;4957;51.412;6.724;2022-10-30T04:10:24;15.70;96.90
9837;DHT22;4957;51.412;6.724;2022-10-30T04:12:50;15.60;96.90
9837;DHT22;4957;51.412;6.724;2022-10-30T04:15:17;15.60;97.00
9837;DHT22;4957;51.412;6.724;2022-10-30T04:17:52;15.60;97.00
9837;DHT22;4957;51.412;6.724;2022-10-30T04:20:18;15.60;97.00
9837;DHT22;4957;51.412;6.724;2022-10-30T04:22:45;15.50;97.10
9837;DHT22;4957;51.412;6.724;2022-10-30T04:25:11;15.50;97.10
9837;DHT22;4957;51.412;6.724;2022-10-30T04:27:44;15.50;97.20
9837;DHT22;4957;51.412;6.724;2022-10-30T04:30:12;15.50;97.20
9837;DHT22;4957;51.412;6.724;2022-10-30T04:32:48;15.40;97.20
9837;DHT22;4957;51.412;6.724;2022-10-30T04:35:16;15.40;97.30
9837;DHT22;4957;51.412;6.724;2022-10-30T04:37:42;15.40;97.30
9837;DHT22;4957;51.412;6.724;2022-10-30T04:40:08;15.40;97.30
9837;DHT22;4957;51.412;6.724;2022-10-30T04:42:34;15.30;97.30
9837;DHT22;4957;51.412;6.724;2022-10-30T04:45:00;15.20;97.40
9837;DHT22;4957;51.412;6.724;2022-10-30T04:47:28;15.20;97.50
9837;DHT22;4957;51.412;6.724;2022-10-30T04:49:53;15.20;97.60
9837;DHT22;4957;51.412;6.724;2022-10-30T04:52:19;15.20;97.60
9837;DHT22;4957;51.412;6.724;2022-10-30T04:54:44;15.20;97.70
9837;DHT22;4957;51.412;6.724;2022-10-30T04:57:10;15.10;97.70
9837;DHT22;4957;51.412;6.724;2022-10-30T04:59:36;15.10;97.80
9837;DHT22;4957;51.412;6.724;2022-10-30T05:02:02;15.10;97.80
9837;DHT22;4957;51.412;6.724;2022-10-30T05:04:27;15.10;97.80
9837;DHT22;4957;51.412;6.724;2022-10-30T05:06:53;15.10;97.80
9837;DHT22;4957;51.412;6.724;2022-10-30T05:09:19;15.10;97.80
9837;DHT22;4957;51.412;6.724;2022-10-30T05:11:44;15.10;97.80
9837;DHT22;4957;51.412;6.724;2022-10-30T05:14:10;15.10;97.90
9837;DHT22;4957;51.412;6.724;2022-10-30T05:16:36;15.10;97.90
9837;DHT22;4957;51.412;6.724;2022-10-30T05:19:02;15.00;97.90
9837;DHT22;4957;51.412;6.724;2022-10-30T05:21:27;15.00;97.90
9837;DHT22;4957;51.412;6.724;2022-10-30T05:23:53;15.00;97.90
9837;DHT22;4957;51.412;6.724;2022-10-30T05:26:19;15.00;97.90
9837;DHT22;4957;51.412;6.724;2022-10-30T05:28:44;15.00;98.00
9837;DHT22;4957;51.412;6.724;2022-10-30T05:31:10;15.00;98.00
9837;DHT22;4957;51.412;6.724;2022-10-30T05:33:36;15.00;98.00
9837;DHT22;4957;51.412;6.724;2022-10-30T05:36:01;15.00;98.00
9837;DHT22;4957;51.412;6.724;2022-10-30T05:38:27;14.90;97.90
9837;DHT22;4957;51.412;6.724;2022-10-30T05:40:53;14.90;98.00
9837;DHT22;4957;51.412;6.724;2022-10-30T05:43:18;14.90;98.10
9837;DHT22;4957;51.412;6.724;2022-10-30T05:45:44;14.90;98.10
9837;DHT22;4957;51.412;6.724;2022-10-30T05:48:12;14.90;98.10
9837;DHT22;4957;51.412;6.724;2022-10-30T05:50:38;14.80;98.00
9837;DHT22;4957;51.412;6.724;2022-10-30T05:53:04;14.80;98.00
9837;DHT22;4957;51.412;6.724;2022-10-30T05:55:30;14.80;98.00
9837;DHT22;4957;51.412;6.724;2022-10-30T06:00:21;14.70;98.10
9837;DHT22;4957;51.412;6.724;2022-10-30T06:02:47;14.70;98.10
9837;DHT22;4957;51.412;6.724;2022-10-30T06:05:13;14.70;98.20
9837;DHT22;4957;51.412;6.724;2022-10-30T06:07:38;14.70;98.20
9837;DHT22;4957;51.412;6.724;2022-10-30T06:10:04;14.70;98.20
9837;DHT22;4957;51.412;6.724;2022-10-30T06:12:30;14.70;98.20
9837;DHT22;4957;51.412;6.724;2022-10-30T06:14:56;14.60;98.10
9837;DHT22;4957;51.412;6.724;2022-10-30T06:17:22;14.60;98.10
9837;DHT22;4957;51.412;6.724;2022-10-30T06:19:47;14.60;98.40
9837;DHT22;4957;51.412;6.724;2022-10-30T06:22:13;14.50;98.10
9837;DHT22;4957;51.412;6.724;2022-10-30T06:24:38;14.50;98.10
9837;DHT22;4957;51.412;6.724;2022-10-30T06:27:04;14.40;98.20
9837;DHT22;4957;51.412;6.724;2022-10-30T06:29:30;14.40;98.30
9837;DHT22;4957;51.412;6.724;2022-10-30T06:31:55;14.40;98.40
9837;DHT22;4957;51.412;6.724;2022-10-30T06:34:21;14.40;98.50
9837;DHT22;4957;51.412;6.724;2022-10-30T06:36:46;14.40;98.50
9837;DHT22;4957;51.412;6.724;2022-10-30T06:39:12;14.30;98.50
9837;DHT22;4957;51.412;6.724;2022-10-30T06:41:38;14.30;98.50
9837;DHT22;4957;51.412;6.724;2022-10-30T06:44:04;14.30;98.70
9837;DHT22;4957;51.412;6.724;2022-10-30T06:46:29;14.30;98.90
9837;DHT22;4957;51.412;6.724;2022-10-30T06:48:56;14.30;98.90
9837;DHT22;4957;51.412;6.724;2022-10-30T06:51:21;14.30;98.90
9837;DHT22;4957;51.412;6.724;2022-10-30T06:53:47;14.30;98.90
9837;DHT22;4957;51.412;6.724;2022-10-30T06:56:13;14.30;99.00
9837;DHT22;4957;51.412;6.724;2022-10-30T06:58:38;14.30;99.10
9837;DHT22;4957;51.412;6.724;2022-10-30T07:01:05;14.30;99.10
9837;DHT22;4957;51.412;6.724;2022-10-30T07:03:31;14.30;99.20
9837;DHT22;4957;51.412;6.724;2022-10-30T07:05:57;14.30;99.20
9837;DHT22;4957;51.412;6.724;2022-10-30T07:08:23;14.30;99.20
9837;DHT22;4957;51.412;6.724;2022-10-30T07:10:50;14.30;99.30
9837;DHT22;4957;51.412;6.724;2022-10-30T07:13:16;14.20;99.40
9837;DHT22;4957;51.412;6.724;2022-10-30T07:15:42;14.20;99.60
9837;DHT22;4957;51.412;6.724;2022-10-30T07:18:09;14.20;99.70
9837;DHT22;4957;51.412;6.724;2022-10-30T07:20:35;14.20;99.80
9837;DHT22;4957;51.412;6.724;2022-10-30T07:23:02;14.20;99.90
9837;DHT22;4957;51.412;6.724;2022-10-30T07:25:28;14.30;99.90
9837;DHT22;4957;51.412;6.724;2022-10-30T07:27:55;14.30;99.90
9837;DHT22;4957;51.412;6.724;2022-10-30T07:30:25;14.30;99.90
9837;DHT22;4957;51.412;6.724;2022-10-30T07:32:59;14.30;99.90
9837;DHT22;4957;51.412;6.724;2022-10-30T07:35:25;14.30;99.90
9837;DHT22;4957;51.412;6.724;2022-10-30T07:37:51;14.30;99.90
9837;DHT22;4957;51.412;6.724;2022-10-30T07:40:17;14.30;99.90
9837;DHT22;4957;51.412;6.724;2022-10-30T07:42:42;14.30;99.90
9837;DHT22;4957;51.412;6.724;2022-10-30T07:45:08;14.30;99.90
9837;DHT22;4957;51.412;6.724;2022-10-30T07:47:43;14.30;99.90
9837;DHT22;4957;51.412;6.724;2022-10-30T07:50:09;14.40;99.90
9837;DHT22;4957;51.412;6.724;2022-10-30T07:52:35;14.40;99.90
9837;DHT22;4957;51.412;6.724;2022-10-30T07:55:02;14.40;99.90
9837;DHT22;4957;51.412;6.724;2022-10-30T07:57:33;14.40;99.90
9837;DHT22;4957;51.412;6.724;2022-10-30T07:59:59;14.40;99.90
9837;DHT22;4957;51.412;6.724;2022-10-30T08:02:26;14.40;99.90
9837;DHT22;4957;51.412;6.724;2022-10-30T08:04:52;14.50;99.90
9837;DHT22;4957;51.412;6.724;2022-10-30T08:07:17;14.50;99.90
9837;DHT22;4957;51.412;6.724;2022-10-30T08:09:44;14.50;99.90
9837;DHT22;4957;51.412;6.724;2022-10-30T08:12:10;14.50;99.90
9837;DHT22;4957;51.412;6.724;2022-10-30T08:14:35;14.50;99.90
9837;DHT22;4957;51.412;6.724;2022-10-30T08:17:01;14.50;99.90
9837;DHT22;4957;51.412;6.724;2022-10-30T08:19:27;14.60;99.90
9837;DHT22;4957;51.412;6.724;2022-10-30T08:21:53;14.60;99.90
9837;DHT22;4957;51.412;6.724;2022-10-30T08:24:21;14.60;99.90
9837;DHT22;4957;51.412;6.724;2022-10-30T08:26:50;14.60;99.90
9837;DHT22;4957;51.412;6.724;2022-10-30T08:29:16;14.70;99.90
9837;DHT22;4957;51.412;6.724;2022-10-30T08:31:42;14.70;99.90
9837;DHT22;4957;51.412;6.724;2022-10-30T08:34:09;14.60;99.90
9837;DHT22;4957;51.412;6.724;2022-10-30T08:36:35;14.70;99.90
9837;DHT22;4957;51.412;6.724;2022-10-30T08:39:01;14.70;99.90
9837;DHT22;4957;51.412;6.724;2022-10-30T08:41:28;14.70;99.90
9837;DHT22;4957;51.412;6.724;2022-10-30T08:43:54;14.70;99.90
9837;DHT22;4957;51.412;6.724;2022-10-30T08:46:19;14.80;99.90
9837;DHT22;4957;51.412;6.724;2022-10-30T08:48:45;14.80;99.90
9837;DHT22;4957;51.412;6.724;2022-10-30T08:51:11;14.80;99.90
9837;DHT22;4957;51.412;6.724;2022-10-30T08:53:38;14.80;99.90
9837;DHT22;4957;51.412;6.724;2022-10-30T08:56:04;14.80;99.90
9837;DHT22;4957;51.412;6.724;2022-10-30T08:58:30;14.90;99.90
9837;DHT22;4957;51.412;6.724;2022-10-30T09:00:56;14.90;99.90
9837;DHT22;4957;51.412;6.724;2022-10-30T09:03:22;14.90;99.90
9837;DHT22;4957;51.412;6.724;2022-10-30T09:05:48;14.90;99.90
9837;DHT22;4957;51.412;6.724;2022-10-30T09:08:14;15.00;99.90
9837;DHT22;4957;51.412;6.724;2022-10-30T09:10:40;15.00;99.90
9837;DHT22;4957;51.412;6.724;2022-10-30T09:13:05;15.00;99.90
9837;DHT22;4957;51.412;6.724;2022-10-30T09:15:32;15.10;99.90
9837;DHT22;4957;51.412;6.724;2022-10-30T09:17:59;15.10;99.90
9837;DHT22;4957;51.412;6.724;2022-10-30T09:20:26;15.10;99.90
9837;DHT22;4957;51.412;6.724;2022-10-30T09:22:52;15.10;99.90
9837;DHT22;4957;51.412;6.724;2022-10-30T09:25:18;15.20;99.90
9837;DHT22;4957;51.412;6.724;2022-10-30T09:27:44;15.20;99.90
9837;DHT22;4957;51.412;6.724;2022-10-30T09:30:10;15.20;99.90
9837;DHT22;4957;51.412;6.724;2022-10-30T09:32:36;15.30;99.90
9837;DHT22;4957;51.412;6.724;2022-10-30T09:35:02;15.30;99.90
9837;DHT22;4957;51.412;6.724;2022-10-30T09:37:28;15.30;99.90
9837;DHT22;4957;51.412;6.724;2022-10-30T09:39:54;15.30;99.90
9837;DHT22;4957;51.412;6.724;2022-10-30T09:42:44;15.40;99.90
9837;DHT22;4957;51.412;6.724;2022-10-30T09:46:20;15.40;99.90
9837;DHT22;4957;51.412;6.724;2022-10-30T09:51:22;15.50;99.90
9837;DHT22;4957;51.412;6.724;2022-10-30T09:57:05;15.60;99.90
9837;DHT22;4957;51.412;6.724;2022-10-30T10:02:37;15.70;99.90
9837;DHT22;4957;51.412;6.724;2022-10-30T10:07:44;15.70;99.90
9837;DHT22;4957;51.412;6.724;2022-10-30T10:10:27;15.80;99.90
9837;DHT22;4957;51.412;6.724;2022-10-30T10:12:58;15.80;99.90
9837;DHT22;4957;51.412;6.724;2022-10-30T10:17:49;15.90;99.90
9837;DHT22;4957;51.412;6.724;2022-10-30T10:20:26;15.90;99.90
9837;DHT22;4957;51.412;6.724;2022-10-30T10:22:54;15.90;99.90
9837;DHT22;4957;51.412;6.724;2022-10-30T10:25:22;16.00;99.90
9837;DHT22;4957;51.412;6.724;2022-10-30T10:28:18;16.10;99.90
9837;DHT22;4957;51.412;6.724;2022-10-30T10:31:05;16.10;99.90
9837;DHT22;4957;51.412;6.724;2022-10-30T10:34:24;16.10;99.90
9837;DHT22;4957;51.412;6.724;2022-10-30T10:36:48;16.20;99.90
9837;DHT22;4957;51.412;6.724;2022-10-30T10:42:02;16.20;99.90
9837;DHT22;4957;51.412;6.724;2022-10-30T10:47:35;16.40;99.90
9837;DHT22;4957;51.412;6.724;2022-10-30T10:50:22;16.40;99.90
9837;DHT22;4957;51.412;6.724;2022-10-30T10:53:09;16.50;99.90
9837;DHT22;4957;51.412;6.724;2022-10-30T10:55:37;16.50;99.90
9837;DHT22;4957;51.412;6.724;2022-10-30T11:01:19;16.60;99.90
9837;DHT22;4957;51.412;6.724;2022-10-30T11:04:03;16.60;99.80
9837;DHT22;4957;51.412;6.724;2022-10-30T11:06:35;16.70;99.80
9837;DHT22;4957;51.412;6.724;2022-10-30T11:09:13;16.80;99.80
9837;DHT22;4957;51.412;6.724;2022-10-30T11:11:42;16.80;99.60
9837;DHT22;4957;51.412;6.724;2022-10-30T11:14:23;16.90;99.70
9837;DHT22;4957;51.412;6.724;2022-10-30T11:17:14;16.90;99.50
9837;DHT22;4957;51.412;6.724;2022-10-30T11:19:44;16.90;99.40
9837;DHT22;4957;51.412;6.724;2022-10-30T11:22:32;17.00;99.30
9837;DHT22;4957;51.412;6.724;2022-10-30T11:25:25;17.00;99.20
9837;DHT22;4957;51.412;6.724;2022-10-30T11:27:59;17.10;99.20
9837;DHT22;4957;51.412;6.724;2022-10-30T11:30:27;17.10;99.10
9837;DHT22;4957;51.412;6.724;2022-10-30T11:32:57;17.10;99.10
9837;DHT22;4957;51.412;6.724;2022-10-30T11:35:24;17.20;99.00
9837;DHT22;4957;51.412;6.724;2022-10-30T11:38:11;17.20;98.90
9837;DHT22;4957;51.412;6.724;2022-10-30T11:40:38;17.30;98.80
9837;DHT22;4957;51.412;6.724;2022-10-30T11:43:07;17.30;98.70
9837;DHT22;4957;51.412;6.724;2022-10-30T11:45:40;17.40;98.80
9837;DHT22;4957;51.412;6.724;2022-10-30T11:48:21;17.40;98.70
9837;DHT22;4957;51.412;6.724;2022-10-30T11:50:49;17.40;98.60
9837;DHT22;4957;51.412;6.724;2022-10-30T11:53:25;17.50;98.50
9837;DHT22;4957;51.412;6.724;2022-10-30T11:55:56;17.60;98.40
9837;DHT22;4957;51.412;6.724;2022-10-30T11:58:36;17.60;98.40
9837;DHT22;4957;51.412;6.724;2022-10-30T12:01:05;17.60;98.30
9837;DHT22;4957;51.412;6.724;2022-10-30T12:03:37;17.70;98.20
9837;DHT22;4957;51.412;6.724;2022-10-30T12:09:10;17.80;98.10
9837;DHT22;4957;51.412;6.724;2022-10-30T12:11:37;17.80;98.00
9837;DHT22;4957;51.412;6.724;2022-10-30T12:14:04;17.80;97.90
9837;DHT22;4957;51.412;6.724;2022-10-30T12:16:32;17.90;97.90
9837;DHT22;4957;51.412;6.724;2022-10-30T12:19:05;17.90;97.70
9837;DHT22;4957;51.412;6.724;2022-10-30T12:21:39;18.00;97.60
9837;DHT22;4957;51.412;6.724;2022-10-30T12:24:31;18.00;97.50
9837;DHT22;4957;51.412;6.724;2022-10-30T12:27:01;18.00;97.30
9837;DHT22;4957;51.412;6.724;2022-10-30T12:29:48;18.10;97.30
9837;DHT22;4957;51.412;6.724;2022-10-30T12:32:18;18.10;97.10
9837;DHT22;4957;51.412;6.724;2022-10-30T12:34:52;18.10;97.10
9837;DHT22;4957;51.412;6.724;2022-10-30T12:40:03;18.20;97.00
9837;DHT22;4957;51.412;6.724;2022-10-30T12:42:34;18.20;96.80
9837;DHT22;4957;51.412;6.724;2022-10-30T12:45:19;18.20;96.80
9837;DHT22;4957;51.412;6.724;2022-10-30T12:50:47;18.30;96.70
9837;DHT22;4957;51.412;6.724;2022-10-30T12:53:26;18.40;96.60
9837;DHT22;4957;51.412;6.724;2022-10-30T12:56:00;18.40;96.60
9837;DHT22;4957;51.412;6.724;2022-10-30T12:58:53;18.40;96.30
9837;DHT22;4957;51.412;6.724;2022-10-30T13:01:36;18.50;96.30
9837;DHT22;4957;51.412;6.724;2022-10-30T13:04:22;18.50;96.30
9837;DHT22;4957;51.412;6.724;2022-10-30T13:10:26;18.60;96.00
9837;DHT22;4957;51.412;6.724;2022-10-30T13:12:58;18.70;96.00
9837;DHT22;4957;51.412;6.724;2022-10-30T13:15:34;18.70;96.00
9837;DHT22;4957;51.412;6.724;2022-10-30T13:18:14;18.70;95.90
9837;DHT22;4957;51.412;6.724;2022-10-30T13:20:45;18.70;95.80
9837;DHT22;4957;51.412;6.724;2022-10-30T13:23:21;18.80;95.70
9837;DHT22;4957;51.412;6.724;2022-10-30T13:26:12;18.80;95.60
9837;DHT22;4957;51.412;6.724;2022-10-30T13:28:44;18.80;95.50
9837;DHT22;4957;51.412;6.724;2022-10-30T13:31:20;18.80;95.50
9837;DHT22;4957;51.412;6.724;2022-10-30T13:33:50;18.90;95.50
9837;DHT22;4957;51.412;6.724;2022-10-30T13:36:27;18.90;95.50
9837;DHT22;4957;51.412;6.724;2022-10-30T13:39:11;18.90;95.30
9837;DHT22;4957;51.412;6.724;2022-10-30T13:44:37;19.00;95.30
9837;DHT22;4957;51.412;6.724;2022-10-30T13:50:27;19.00;95.20
9837;DHT22;4957;51.412;6.724;2022-10-30T13:52:59;19.00;95.20
9837;DHT22;4957;51.412;6.724;2022-10-30T13:55:29;19.10;95.40
9837;DHT22;4957;51.412;6.724;2022-10-30T14:11:16;19.20;95.40
9837;DHT22;4957;51.412;6.724;2022-10-30T14:19:16;19.30;95.30
9837;DHT22;4957;51.412;6.724;2022-10-30T14:21:56;19.40;95.40
9837;DHT22;4957;51.412;6.724;2022-10-30T14:29:43;19.40;95.30
9837;DHT22;4957;51.412;6.724;2022-10-30T14:34:56;19.50;95.30
9837;DHT22;4957;51.412;6.724;2022-10-30T14:39:48;19.50;95.20
9837;DHT22;4957;51.412;6.724;2022-10-30T14:51:08;19.50;95.00
9837;DHT22;4957;51.412;6.724;2022-10-30T14:56:40;19.50;95.00
9837;DHT22;4957;51.412;6.724;2022-10-30T15:02:12;19.50;95.00
9837;DHT22;4957;51.412;6.724;2022-10-30T15:07:49;19.50;95.00
9837;DHT22;4957;51.412;6.724;2022-10-30T15:10:28;19.50;95.10
9837;DHT22;4957;51.412;6.724;2022-10-30T15:13:01;19.50;95.00
9837;DHT22;4957;51.412;6.724;2022-10-30T15:15:29;19.50;95.10
9837;DHT22;4957;51.412;6.724;2022-10-30T15:18:10;19.50;95.10
9837;DHT22;4957;51.412;6.724;2022-10-30T15:20:39;19.50;95.10
9837;DHT22;4957;51.412;6.724;2022-10-30T15:23:19;19.50;95.30
9837;DHT22;4957;51.412;6.724;2022-10-30T15:25:50;19.50;95.30
9837;DHT22;4957;51.412;6.724;2022-10-30T15:28:19;19.50;95.40
9837;DHT22;4957;51.412;6.724;2022-10-30T15:31:05;19.50;95.50
9837;DHT22;4957;51.412;6.724;2022-10-30T15:33:34;19.50;95.50
9837;DHT22;4957;51.412;6.724;2022-10-30T15:36:03;19.40;95.50
9837;DHT22;4957;51.412;6.724;2022-10-30T15:38:28;19.40;95.50
9837;DHT22;4957;51.412;6.724;2022-10-30T15:41:00;19.40;95.50
9837;DHT22;4957;51.412;6.724;2022-10-30T15:43:32;19.40;95.50
9837;DHT22;4957;51.412;6.724;2022-10-30T15:45:59;19.40;95.50
9837;DHT22;4957;51.412;6.724;2022-10-30T15:48:32;19.30;95.60
9837;DHT22;4957;51.412;6.724;2022-10-30T15:51:07;19.30;95.70
9837;DHT22;4957;51.412;6.724;2022-10-30T15:53:43;19.20;95.70
9837;DHT22;4957;51.412;6.724;2022-10-30T15:56:34;19.30;95.80
9837;DHT22;4957;51.412;6.724;2022-10-30T15:59:04;19.20;95.80
9837;DHT22;4957;51.412;6.724;2022-10-30T16:01:31;19.20;95.90
9837;DHT22;4957;51.412;6.724;2022-10-30T16:03:58;19.20;96.00
9837;DHT22;4957;51.412;6.724;2022-10-30T16:06:26;19.10;95.90
9837;DHT22;4957;51.412;6.724;2022-10-30T16:08:52;19.10;96.00
9837;DHT22;4957;51.412;6.724;2022-10-30T16:11:19;19.10;96.00
9837;DHT22;4957;51.412;6.724;2022-10-30T16:13:47;19.00;96.00
9837;DHT22;4957;51.412;6.724;2022-10-30T16:16:20;19.00;96.00
9837;DHT22;4957;51.412;6.724;2022-10-30T16:18:46;19.00;96.00
9837;DHT22;4957;51.412;6.724;2022-10-30T16:21:14;19.00;96.10
9837;DHT22;4957;51.412;6.724;2022-10-30T16:23:49;18.90;96.20
9837;DHT22;4957;51.412;6.724;2022-10-30T16:26:37;18.90;96.10
9837;DHT22;4957;51.412;6.724;2022-10-30T16:31:40;18.80;96.20
9837;DHT22;4957;51.412;6.724;2022-10-30T16:34:25;18.80;96.40
9837;DHT22;4957;51.412;6.724;2022-10-30T16:36:52;18.70;96.20
9837;DHT22;4957;51.412;6.724;2022-10-30T16:39:20;18.70;96.40
9837;DHT22;4957;51.412;6.724;2022-10-30T16:41:46;18.70;96.40
9837;DHT22;4957;51.412;6.724;2022-10-30T16:49:31;18.50;96.40
9837;DHT22;4957;51.412;6.724;2022-10-30T16:52:09;18.50;96.50
9837;DHT22;4957;51.412;6.724;2022-10-30T16:54:40;18.50;96.60
9837;DHT22;4957;51.412;6.724;2022-10-30T16:57:57;18.40;96.60
9837;DHT22;4957;51.412;6.724;2022-10-30T17:00:04;18.40;96.60
9837;DHT22;4957;51.412;6.724;2022-10-30T17:02:34;18.30;96.70
9837;DHT22;4957;51.412;6.724;2022-10-30T17:05:08;18.20;96.70
9837;DHT22;4957;51.412;6.724;2022-10-30T17:07:36;18.20;96.70
9837;DHT22;4957;51.412;6.724;2022-10-30T17:10:03;18.10;96.80
9837;DHT22;4957;51.412;6.724;2022-10-30T17:12:48;18.10;96.80
9837;DHT22;4957;51.412;6.724;2022-10-30T17:15:14;18.10;96.90
9837;DHT22;4957;51.412;6.724;2022-10-30T17:18:10;18.00;96.90
9837;DHT22;4957;51.412;6.724;2022-10-30T17:20:39;18.00;96.80
9837;DHT22;4957;51.412;6.724;2022-10-30T17:23:17;17.90;97.00
9837;DHT22;4957;51.412;6.724;2022-10-30T17:25:44;17.90;96.90
9837;DHT22;4957;51.412;6.724;2022-10-30T17:28:36;17.90;97.00
9837;DHT22;4957;51.412;6.724;2022-10-30T17:33:46;17.80;97.00
9837;DHT22;4957;51.412;6.724;2022-10-30T17:36:12;17.80;97.20
9837;DHT22;4957;51.412;6.724;2022-10-30T17:38:38;17.80;97.20
9837;DHT22;4957;51.412;6.724;2022-10-30T17:41:04;17.70;97.20
9837;DHT22;4957;51.412;6.724;2022-10-30T17:43:34;17.70;97.30
9837;DHT22;4957;51.412;6.724;2022-10-30T17:46:11;17.70;97.30
9837;DHT22;4957;51.412;6.724;2022-10-30T17:48:37;17.60;97.40
9837;DHT22;4957;51.412;6.724;2022-10-30T17:51:03;17.60;97.40
9837;DHT22;4957;51.412;6.724;2022-10-30T17:53:28;17.60;97.50
9837;DHT22;4957;51.412;6.724;2022-10-30T17:56:09;17.50;97.50
9837;DHT22;4957;51.412;6.724;2022-10-30T17:58:37;17.50;97.50
9837;DHT22;4957;51.412;6.724;2022-10-30T18:01:02;17.50;97.60
9837;DHT22;4957;51.412;6.724;2022-10-30T18:03:28;17.50;97.70
9837;DHT22;4957;51.412;6.724;2022-10-30T18:05:54;17.40;97.70
9837;DHT22;4957;51.412;6.724;2022-10-30T18:08:20;17.40;97.70
9837;DHT22;4957;51.412;6.724;2022-10-30T18:10:46;17.40;97.80
9837;DHT22;4957;51.412;6.724;2022-10-30T18:13:13;17.40;97.80
9837;DHT22;4957;51.412;6.724;2022-10-30T18:15:43;17.30;97.80
9837;DHT22;4957;51.412;6.724;2022-10-30T18:18:10;17.30;97.80
9837;DHT22;4957;51.412;6.724;2022-10-30T18:20:36;17.30;97.90
9837;DHT22;4957;51.412;6.724;2022-10-30T18:23:04;17.20;98.00